Time;durP1;ratioP1;P1;durP2;ratioP2;P2;SDS_P1;SDS_P2;PMS_P1;PMS_P2;Temp;Humidity;BMP_temperature;BMP_pressure;BME280_temperature;BME280_humidity;BME280_pressure;Samples;Min_cycle;Max_cycle;Signal;HPM_P1;HPM_P2
2023/12/25 00:00:39;;;;;;;;;;;;;;;11.91;55.71;99505.72;1087451;47;1034;-80
2023/12/25 00:01:39;;;;;;;;;;;;;;;11.85;56.02;99505.38;1087677;54;1039;-80
2023/12/25 00:02:43;;;;;;;;;;;;;;;11.76;56.01;99502.88;1087716;47;1119;-80
2023/12/25 00:03:43;;;;;;;;;;;;;;;11.91;55.65;99498.53;1087525;47;967;-81
2023/12/25 00:04:44;;;;;;;;;;;;;;;11.97;55.67;99491.66;1087559;54;1113;-79
2023/12/25 00:05:48;;;;;;;;;;;;;;;11.82;55.83;99495.03;1086941;54;1484;-79
2023/12/25 00:06:49;;;;;;;;;;;;;;;11.92;55.29;99492.16;1087014;47;1012;-79
2023/12/25 00:07:53;;;;;;;;;;;;;;;12.00;55.58;99494.88;1087284;47;1074;-79
2023/12/25 00:08:53;;;;;;;;;;;;;;;11.99;55.40;99493.22;1087799;47;1326;-79
2023/12/25 00:09:56;;;;;;;;;;;;;;;12.15;55.04;99499.56;1087970;47;1028;-79
2023/12/25 00:10:57;;;;;;;;;;;;;;;12.12;55.39;99490.03;1087329;54;1099;-79
2023/12/25 00:11:58;;;;;;;;;;;;;;;11.96;55.30;99490.00;1087179;46;1062;-81
2023/12/25 00:13:01;;;;;;;;;;;;;;;11.93;55.52;99490.34;1086627;54;1104;-79
2023/12/25 00:14:02;;;;;;;;;;;;;;;11.89;55.76;99489.84;1086028;47;1139;-79
2023/12/25 00:15:09;;;;;;;;;;;;;;;11.87;55.63;99486.50;1086741;54;1051;-79
2023/12/25 00:16:10;;;;;;;;;;;;;;;11.93;55.34;99495.69;1086790;54;1893;-79
2023/12/25 00:17:14;;;;;;;;;;;;;;;11.93;55.32;99499.19;1086579;54;1138;-80
2023/12/25 00:18:15;;;;;;;;;;;;;;;11.86;55.60;99500.88;1086829;47;1141;-80
2023/12/25 00:19:18;;;;;;;;;;;;;;;11.87;55.87;99499.88;1086319;47;1430;-79
2023/12/25 00:20:19;;;;;;;;;;;;;;;11.93;55.63;99490.34;1086625;47;1175;-79
2023/12/25 00:21:22;;;;;;;;;;;;;;;11.86;55.69;99496.34;1086712;47;1163;-80
2023/12/25 00:22:23;;;;;;;;;;;;;;;11.91;55.49;99493.16;1086863;54;1063;-81
2023/12/25 00:23:26;;;;;;;;;;;;;;;12.15;55.17;99495.03;1087437;54;1155;-78
2023/12/25 00:24:27;;;;;;;;;;;;;;;11.97;55.42;99503.25;1087260;47;1069;-79
2023/12/25 00:25:28;;;;;;;;;;;;;;;12.10;55.33;99496.53;1087445;54;1000;-78
2023/12/25 00:26:31;;;;;;;;;;;;;;;12.07;55.42;99502.25;1087455;47;1083;-79
2023/12/25 00:27:32;;;;;;;;;;;;;;;12.06;55.20;99516.66;1087467;54;1131;-78
2023/12/25 00:28:33;;;;;;;;;;;;;;;12.13;55.07;99494.41;1087600;47;1258;-79
2023/12/25 00:29:36;;;;;;;;;;;;;;;11.97;55.28;99510.41;1087597;47;1090;-79
2023/12/25 00:30:40;;;;;;;;;;;;;;;11.76;56.08;99506.38;1087770;47;1652;-80
2023/12/25 00:31:40;;;;;;;;;;;;;;;12.12;55.25;99498.06;1087959;54;984;-79
2023/12/25 00:32:44;;;;;;;;;;;;;;;11.94;55.53;99505.41;1087743;54;1130;-80
2023/12/25 00:33:44;;;;;;;;;;;;;;;12.14;55.01;99505.94;1087869;47;1156;-80
2023/12/25 00:34:48;;;;;;;;;;;;;;;11.94;55.44;99500.88;1088098;47;1202;-80
2023/12/25 00:35:49;;;;;;;;;;;;;;;11.85;55.78;99509.91;1087626;54;1351;-79
2023/12/25 00:36:52;;;;;;;;;;;;;;;11.87;55.88;99499.88;1088061;54;1859;-80
2023/12/25 00:37:53;;;;;;;;;;;;;;;12.08;55.55;99496.72;1088010;47;1063;-80
2023/12/25 00:38:56;;;;;;;;;;;;;;;11.81;55.64;99490.66;1087727;54;1335;-80
2023/12/25 00:39:57;;;;;;;;;;;;;;;11.74;56.34;99499.50;1087849;47;1076;-81
2023/12/25 00:41:00;;;;;;;;;;;;;;;11.77;56.18;99491.16;1087764;47;1020;-79
2023/12/25 00:42:01;;;;;;;;;;;;;;;11.87;56.10;99491.84;1087706;54;1108;-80
2023/12/25 00:43:04;;;;;;;;;;;;;;;12.09;55.40;99497.56;1087925;54;1190;-79
2023/12/25 00:44:05;;;;;;;;;;;;;;;12.10;55.55;99493.88;1087961;54;1131;-80
2023/12/25 00:45:09;;;;;;;;;;;;;;;12.01;56.03;99501.91;1087860;47;1094;-80
2023/12/25 00:46:13;;;;;;;;;;;;;;;11.71;56.40;99495.34;1087522;54;1038;-80
2023/12/25 00:47:16;;;;;;;;;;;;;;;11.76;56.03;99494.84;1088279;54;1021;-79
2023/12/25 00:48:17;;;;;;;;;;;;;;;11.82;56.13;99499.53;1088054;47;1046;-80
2023/12/25 00:49:20;;;;;;;;;;;;;;;11.74;56.18;99495.03;1087692;54;1473;-80
2023/12/25 00:50:21;;;;;;;;;;;;;;;11.71;56.49;99504.19;1087727;54;1105;-80
2023/12/25 00:51:25;;;;;;;;;;;;;;;11.84;56.01;99501.06;1087368;54;1034;-80
2023/12/25 00:52:25;;;;;;;;;;;;;;;11.67;56.36;99497.50;1087455;46;1035;-80
2023/12/25 00:53:26;;;;;;;;;;;;;;;11.95;56.08;99501.72;1087909;54;1160;-79
2023/12/25 00:54:31;;;;;;;;;;;;;;;11.92;55.87;99502.88;1087756;54;1181;-80
2023/12/25 00:55:32;;;;;;;;;;;;;;;11.86;56.04;99501.69;1087717;54;1130;-79
2023/12/25 00:56:36;;;;;;;;;;;;;;;11.83;56.45;99496.69;1087828;54;1864;-80
2023/12/25 00:57:37;;;;;;;;;;;;;;;12.08;55.59;99494.03;1087812;46;1038;-80
2023/12/25 00:58:37;;;;;;;;;;;;;;;11.99;55.86;99478.97;1087476;47;1349;-81
2023/12/25 00:59:40;;;;;;;;;;;;;;;11.81;56.40;99489.81;1087605;54;1118;-80
2023/12/25 01:00:41;;;;;;;;;;;;;;;11.90;56.00;99485.31;1087606;54;1185;-80
2023/12/25 01:01:44;;;;;;;;;;;;;;;11.90;56.13;99502.22;1087558;47;969;-80
2023/12/25 01:02:48;;;;;;;;;;;;;;;12.14;55.81;99492.53;1087585;54;1393;-80
2023/12/25 01:03:48;;;;;;;;;;;;;;;11.80;56.22;99486.31;1087575;54;1130;-80
2023/12/25 01:04:51;;;;;;;;;;;;;;;11.74;56.30;99486.13;1087612;46;1182;-80
2023/12/25 01:05:53;;;;;;;;;;;;;;;11.70;56.39;99481.13;1087593;54;1119;-80
2023/12/25 01:06:56;;;;;;;;;;;;;;;11.64;56.51;99481.78;1087375;46;1085;-80
2023/12/25 01:07:57;;;;;;;;;;;;;;;11.57;56.51;99485.28;1087668;54;1073;-80
2023/12/25 01:09:00;;;;;;;;;;;;;;;11.56;56.51;99484.44;1087615;47;1307;-80
2023/12/25 01:10:01;;;;;;;;;;;;;;;11.63;56.52;99482.78;1087614;47;1076;-80
2023/12/25 01:11:06;;;;;;;;;;;;;;;11.69;56.22;99490.16;1087614;54;1076;-80
2023/12/25 01:12:06;;;;;;;;;;;;;;;11.86;55.95;99484.81;1087596;54;1075;-80
2023/12/25 01:13:10;;;;;;;;;;;;;;;11.97;55.74;99486.31;1087550;54;1153;-80
2023/12/25 01:14:10;;;;;;;;;;;;;;;11.67;56.32;99492.16;1087133;47;1036;-79
2023/12/25 01:15:15;;;;;;;;;;;;;;;11.65;56.44;99494.16;1087443;54;1135;-81
2023/12/25 01:16:16;;;;;;;;;;;;;;;11.61;56.60;99487.47;1086956;47;1198;-80
2023/12/25 01:17:22;;;;;;;;;;;;;;;11.64;56.36;99489.81;1087008;54;1857;-80
2023/12/25 01:18:22;;;;;;;;;;;;;;;11.59;56.47;99492.16;1087345;54;1082;-80
2023/12/25 01:19:26;;;;;;;;;;;;;;;11.81;56.33;99490.66;1086961;54;1278;-79
2023/12/25 01:20:26;;;;;;;;;;;;;;;11.69;56.59;99490.16;1086897;54;1110;-80
2023/12/25 01:21:29;;;;;;;;;;;;;;;11.51;56.51;99489.47;1086872;54;1101;-79
2023/12/25 01:22:30;;;;;;;;;;;;;;;11.53;56.51;99487.44;1086766;46;1160;-78
2023/12/25 01:23:31;;;;;;;;;;;;;;;11.65;56.36;99483.44;1086641;47;1463;-77
2023/12/25 01:24:34;;;;;;;;;;;;;;;11.71;55.86;99472.06;1086557;47;998;-79
2023/12/25 01:25:35;;;;;;;;;;;;;;;11.76;55.93;99478.78;1086906;54;1098;-79
2023/12/25 01:26:39;;;;;;;;;;;;;;;11.74;56.13;99488.81;1086731;54;1142;-78
2023/12/25 01:27:41;;;;;;;;;;;;;;;11.73;55.74;99471.06;1087210;47;1066;-78
2023/12/25 01:28:44;;;;;;;;;;;;;;;11.81;55.88;99460.34;1086969;47;1313;-78
2023/12/25 01:29:45;;;;;;;;;;;;;;;11.64;56.06;99472.91;1087226;46;1023;-79
2023/12/25 01:30:45;;;;;;;;;;;;;;;11.67;56.14;99473.41;1087046;47;1094;-79
2023/12/25 01:31:49;;;;;;;;;;;;;;;11.68;56.11;99461.72;1087196;54;1173;-79
2023/12/25 01:32:52;;;;;;;;;;;;;;;11.70;56.06;99465.06;1086846;47;1067;-79
2023/12/25 01:33:56;;;;;;;;;;;;;;;11.67;56.11;99468.06;1087549;54;1031;-79
2023/12/25 01:34:57;;;;;;;;;;;;;;;11.61;56.38;99476.75;1087103;47;1186;-78
2023/12/25 01:35:58;;;;;;;;;;;;;;;11.57;56.22;99469.22;1087333;54;1184;-78
2023/12/25 01:37:04;;;;;;;;;;;;;;;11.56;56.06;99463.03;1087270;54;1856;-78
2023/12/25 01:38:04;;;;;;;;;;;;;;;11.67;56.29;99459.19;1087344;46;936;-78
2023/12/25 01:39:08;;;;;;;;;;;;;;;11.65;56.19;99462.03;1086916;47;1311;-79
2023/12/25 01:40:10;;;;;;;;;;;;;;;11.61;56.15;99455.34;1087185;54;1051;-78
2023/12/25 01:41:13;;;;;;;;;;;;;;;11.57;56.46;99463.88;1086992;54;1169;-79
2023/12/25 01:42:14;;;;;;;;;;;;;;;11.65;56.32;99466.56;1087219;54;1158;-79
2023/12/25 01:43:17;;;;;;;;;;;;;;;11.58;56.38;99466.38;1087005;54;1194;-78
2023/12/25 01:44:17;;;;;;;;;;;;;;;11.58;56.55;99468.19;1087655;54;1158;-79
2023/12/25 01:45:22;;;;;;;;;;;;;;;11.56;56.71;99481.75;1088177;54;970;-79
2023/12/25 01:46:23;;;;;;;;;;;;;;;11.51;56.66;99474.22;1087805;47;938;-79
2023/12/25 01:47:24;;;;;;;;;;;;;;;11.52;56.62;99478.59;1087846;47;1048;-79
2023/12/25 01:48:30;;;;;;;;;;;;;;;11.51;56.61;99476.09;1088227;54;1042;-80
2023/12/25 01:49:31;;;;;;;;;;;;;;;11.64;56.70;99479.09;1088201;54;1373;-78
2023/12/25 01:50:34;;;;;;;;;;;;;;;11.57;56.89;99474.59;1088345;47;1013;-79
2023/12/25 01:51:36;;;;;;;;;;;;;;;11.53;56.73;99474.91;1088416;54;1115;-79
2023/12/25 01:52:36;;;;;;;;;;;;;;;11.61;56.55;99475.91;1088453;47;1184;-78
2023/12/25 01:53:40;;;;;;;;;;;;;;;11.51;56.96;99471.56;1088240;47;1003;-80
2023/12/25 01:54:40;;;;;;;;;;;;;;;11.65;56.64;99478.09;1088475;46;968;-80
2023/12/25 01:55:44;;;;;;;;;;;;;;;11.78;56.36;99484.81;1088411;46;1000;-79
2023/12/25 01:56:46;;;;;;;;;;;;;;;11.64;56.70;99483.63;1088061;54;1840;-79
2023/12/25 01:57:47;;;;;;;;;;;;;;;11.52;57.10;99489.28;1088059;47;993;-78
2023/12/25 01:58:50;;;;;;;;;;;;;;;11.54;57.15;99481.09;1087895;54;1364;-80
2023/12/25 01:59:50;;;;;;;;;;;;;;;11.58;56.90;99494.97;1087940;54;1080;-78
2023/12/25 02:00:54;;;;;;;;;;;;;;;11.75;56.84;99493.16;1088129;54;1260;-79
2023/12/25 02:01:55;;;;;;;;;;;;;;;11.89;56.44;99495.19;1087945;47;1143;-79
2023/12/25 02:03:00;;;;;;;;;;;;;;;11.63;56.97;99488.13;1087987;47;967;-78
2023/12/25 02:04:03;;;;;;;;;;;;;;;11.63;57.00;99495.34;1087919;46;1142;-80
2023/12/25 02:05:08;;;;;;;;;;;;;;;11.52;57.00;99491.16;1087847;47;1090;-79
2023/12/25 02:06:12;;;;;;;;;;;;;;;11.63;56.91;99488.13;1087720;54;1073;-79
2023/12/25 02:07:17;;;;;;;;;;;;;;;11.60;56.64;99490.28;1087858;46;1052;-80
2023/12/25 02:08:18;;;;;;;;;;;;;;;11.49;56.99;99472.72;1087920;54;1067;-79
2023/12/25 02:09:19;;;;;;;;;;;;;;;11.54;56.87;99491.78;1087638;47;1147;-79
2023/12/25 02:10:29;;;;;;;;;;;;;;;11.54;56.64;99481.09;1087808;46;1001;-79
2023/12/25 02:11:31;;;;;;;;;;;;;;;11.55;56.79;99499.69;1087954;47;1129;-80
2023/12/25 02:12:34;;;;;;;;;;;;;;;11.56;57.00;99489.78;1087751;54;1035;-79
2023/12/25 02:13:35;;;;;;;;;;;;;;;11.49;57.09;99494.97;1087911;54;1147;-79
2023/12/25 02:14:38;;;;;;;;;;;;;;;11.50;56.80;99493.97;1087760;54;1032;-79
2023/12/25 02:15:39;;;;;;;;;;;;;;;11.54;56.89;99492.66;1087907;54;1133;-79
2023/12/25 02:16:43;;;;;;;;;;;;;;;11.61;56.70;99495.50;1087806;54;951;-79
2023/12/25 02:17:44;;;;;;;;;;;;;;;11.54;56.59;99502.50;1087950;47;1843;-80
2023/12/25 02:18:48;;;;;;;;;;;;;;;11.52;56.74;99507.19;1087867;47;1336;-81
2023/12/25 02:19:51;;;;;;;;;;;;;;;11.55;56.76;99509.53;1087808;54;1039;-79
2023/12/25 02:20:55;;;;;;;;;;;;;;;11.63;56.73;99506.03;1088004;47;996;-79
2023/12/25 02:21:56;;;;;;;;;;;;;;;11.53;56.83;99517.72;1087963;54;1037;-81
2023/12/25 02:22:59;;;;;;;;;;;;;;;11.54;56.42;99519.41;1087799;47;1132;-80
2023/12/25 02:24:06;;;;;;;;;;;;;;;11.57;56.40;99515.56;1087796;47;1098;-78
2023/12/25 02:25:08;;;;;;;;;;;;;;;11.63;56.52;99514.91;1086539;54;1170;-79
2023/12/25 02:26:16;;;;;;;;;;;;;;;11.63;56.55;99509.53;1086978;47;1131;-79
2023/12/25 02:27:17;;;;;;;;;;;;;;;11.62;56.62;99517.75;1087160;47;1014;-79
2023/12/25 02:28:17;;;;;;;;;;;;;;;11.64;56.43;99519.25;1087000;46;1100;-80
2023/12/25 02:29:21;;;;;;;;;;;;;;;11.53;56.59;99517.72;1086979;47;1297;-78
2023/12/25 02:30:21;;;;;;;;;;;;;;;11.51;56.51;99518.91;1087517;54;1262;-80
2023/12/25 02:31:26;;;;;;;;;;;;;;;11.65;56.08;99514.75;1086986;47;1068;-80
2023/12/25 02:32:28;;;;;;;;;;;;;;;11.54;56.31;99506.03;1087979;47;1118;-78
2023/12/25 02:33:31;;;;;;;;;;;;;;;11.51;56.28;99502.84;1087989;54;1241;-78
2023/12/25 02:34:32;;;;;;;;;;;;;;;11.50;56.68;99515.38;1088163;46;1030;-77
2023/12/25 02:35:33;;;;;;;;;;;;;;;11.44;56.70;99517.84;1088135;47;990;-78
2023/12/25 02:36:37;;;;;;;;;;;;;;;11.55;56.48;99510.38;1087764;47;1174;-78
2023/12/25 02:37:38;;;;;;;;;;;;;;;11.77;55.68;99501.88;1087676;54;1854;-79
2023/12/25 02:38:41;;;;;;;;;;;;;;;11.65;56.16;99512.91;1087636;54;1430;-79
2023/12/25 02:39:42;;;;;;;;;;;;;;;11.58;56.39;99503.84;1087941;54;1192;-79
2023/12/25 02:40:45;;;;;;;;;;;;;;;11.64;56.27;99508.53;1087886;54;1512;-79
2023/12/25 02:41:48;;;;;;;;;;;;;;;11.62;56.21;99507.88;1087656;47;1150;-79
2023/12/25 02:42:52;;;;;;;;;;;;;;;11.56;56.28;99511.22;1087846;54;1134;-79
2023/12/25 02:43:52;;;;;;;;;;;;;;;11.64;56.29;99497.00;1087755;54;1099;-79
2023/12/25 02:44:53;;;;;;;;;;;;;;;11.46;56.44;99499.81;1088059;54;1091;-80
2023/12/25 02:45:57;;;;;;;;;;;;;;;11.48;56.48;99508.53;1087791;54;1168;-80
2023/12/25 02:46:58;;;;;;;;;;;;;;;11.62;56.14;99510.53;1087734;54;1094;-78
2023/12/25 02:48:00;;;;;;;;;;;;;;;11.56;55.93;99503.19;1087725;47;1164;-78
2023/12/25 02:49:03;;;;;;;;;;;;;;;11.54;56.01;99514.06;1087673;47;1363;-79
2023/12/25 02:50:05;;;;;;;;;;;;;;;11.58;55.99;99511.03;1087904;47;1035;-79
2023/12/25 02:51:08;;;;;;;;;;;;;;;11.74;55.45;99497.69;1087678;54;1158;-78
2023/12/25 02:52:09;;;;;;;;;;;;;;;11.76;55.60;99510.91;1087632;54;1115;-79
2023/12/25 02:53:12;;;;;;;;;;;;;;;11.68;55.71;99504.53;1087630;54;1142;-78
2023/12/25 02:54:13;;;;;;;;;;;;;;;11.66;55.86;99505.72;1087656;47;1110;-79
2023/12/25 02:55:17;;;;;;;;;;;;;;;11.52;56.02;99505.34;1087854;54;1511;-80
2023/12/25 02:56:18;;;;;;;;;;;;;;;11.59;56.23;99513.56;1087629;47;1082;-79
2023/12/25 02:57:21;;;;;;;;;;;;;;;11.72;55.76;99507.72;1087444;47;1888;-79
2023/12/25 02:58:24;;;;;;;;;;;;;;;11.70;55.84;99507.91;1087853;54;1126;-79
2023/12/25 02:59:25;;;;;;;;;;;;;;;11.73;55.58;99512.09;1087447;46;1340;-80
2023/12/25 03:00:28;;;;;;;;;;;;;;;11.64;56.11;99495.16;1087666;54;1063;-79
2023/12/25 03:01:29;;;;;;;;;;;;;;;11.56;55.97;99495.16;1087800;54;1174;-79
2023/12/25 03:02:30;;;;;;;;;;;;;;;11.49;56.12;99505.66;1087925;54;1087;-79
2023/12/25 03:03:33;;;;;;;;;;;;;;;11.66;55.89;99498.50;1087656;54;1428;-79
2023/12/25 03:04:34;;;;;;;;;;;;;;;11.80;55.66;99501.56;1087409;46;1170;-79
2023/12/25 03:05:35;;;;;;;;;;;;;;;11.80;55.59;99501.56;1087793;54;1246;-79
2023/12/25 03:06:38;;;;;;;;;;;;;;;11.57;56.16;99502.19;1087480;47;1133;-79
2023/12/25 03:07:41;;;;;;;;;;;;;;;11.65;55.80;99499.50;1087833;47;1055;-79
2023/12/25 03:08:42;;;;;;;;;;;;;;;11.70;55.61;99515.09;1087435;46;1378;-79
2023/12/25 03:09:45;;;;;;;;;;;;;;;11.50;56.44;99512.69;1087929;54;1074;-78
2023/12/25 03:10:46;;;;;;;;;;;;;;;11.81;55.60;99503.19;1087829;54;1126;-81
2023/12/25 03:11:46;;;;;;;;;;;;;;;11.92;55.21;99500.19;1086775;54;1048;-79
2023/12/25 03:12:52;;;;;;;;;;;;;;;11.96;55.29;99506.91;1087505;54;1208;-79
2023/12/25 03:13:53;;;;;;;;;;;;;;;11.78;55.62;99499.03;1087864;54;1004;-80
2023/12/25 03:14:56;;;;;;;;;;;;;;;11.70;56.00;99493.66;1087876;54;1063;-79
2023/12/25 03:15:57;;;;;;;;;;;;;;;11.90;55.80;99496.88;1087727;47;1078;-80
2023/12/25 03:17:01;;;;;;;;;;;;;;;11.79;55.98;99490.00;1087659;54;1190;-79
2023/12/25 03:18:02;;;;;;;;;;;;;;;11.56;56.40;99479.09;1087874;47;1857;-80
2023/12/25 03:19:05;;;;;;;;;;;;;;;11.43;56.44;99489.44;1087789;54;1409;-79
2023/12/25 03:20:06;;;;;;;;;;;;;;;11.64;56.22;99491.66;1087801;47;1028;-79
2023/12/25 03:21:10;;;;;;;;;;;;;;;11.73;56.10;99489.81;1087889;54;1019;-80
2023/12/25 03:22:11;;;;;;;;;;;;;;;11.62;56.44;99497.16;1087980;54;1123;-79
2023/12/25 03:23:14;;;;;;;;;;;;;;;11.46;56.89;99499.81;1087757;47;1416;-79
2023/12/25 03:24:15;;;;;;;;;;;;;;;11.53;56.71;99501.69;1087867;47;1039;-79
2023/12/25 03:25:18;;;;;;;;;;;;;;;11.48;57.05;99497.81;1087931;54;1047;-80
2023/12/25 03:26:20;;;;;;;;;;;;;;;11.51;57.10;99497.50;1087951;47;1021;-80
2023/12/25 03:27:23;;;;;;;;;;;;;;;11.53;56.63;99500.81;1088131;54;1126;-79
2023/12/25 03:28:27;;;;;;;;;;;;;;;11.48;57.06;99493.28;1088070;54;1079;-80
2023/12/25 03:29:28;;;;;;;;;;;;;;;11.65;56.66;99496.84;1088014;54;1353;-79
2023/12/25 03:30:31;;;;;;;;;;;;;;;11.43;56.83;99495.63;1087900;47;951;-79
2023/12/25 03:31:33;;;;;;;;;;;;;;;11.48;56.76;99495.13;1087790;47;1071;-79
2023/12/25 03:32:34;;;;;;;;;;;;;;;11.65;56.53;99506.72;1086752;54;1075;-80
2023/12/25 03:33:37;;;;;;;;;;;;;;;11.63;56.44;99511.41;1087730;54;1028;-79
2023/12/25 03:34:44;;;;;;;;;;;;;;;11.63;56.58;99512.22;1087881;47;1111;-79
2023/12/25 03:35:45;;;;;;;;;;;;;;;11.46;56.79;99505.16;1088009;54;1040;-80
2023/12/25 03:36:50;;;;;;;;;;;;;;;11.63;56.75;99514.91;1088135;54;1091;-80
2023/12/25 03:37:50;;;;;;;;;;;;;;;11.60;56.66;99507.22;1087500;54;1918;-78
2023/12/25 03:38:54;;;;;;;;;;;;;;;11.73;56.34;99505.88;1087439;47;1330;-79
2023/12/25 03:39:54;;;;;;;;;;;;;;;11.63;56.60;99506.88;1087452;54;1080;-79
2023/12/25 03:40:57;;;;;;;;;;;;;;;11.55;56.38;99515.75;1087494;54;1075;-79
2023/12/25 03:41:59;;;;;;;;;;;;;;;11.70;56.45;99513.25;1086801;47;1118;-79
2023/12/25 03:43:02;;;;;;;;;;;;;;;11.64;56.51;99513.91;1086554;54;1099;-79
2023/12/25 03:44:06;;;;;;;;;;;;;;;11.70;56.62;99518.63;1086804;54;1125;-79
2023/12/25 03:45:10;;;;;;;;;;;;;;;11.73;56.40;99513.91;1086503;54;1122;-79
2023/12/25 03:46:11;;;;;;;;;;;;;;;11.89;55.78;99521.13;1086546;47;983;-79
2023/12/25 03:47:15;;;;;;;;;;;;;;;11.77;56.21;99520.63;1086817;47;971;-78
2023/12/25 03:48:16;;;;;;;;;;;;;;;11.76;56.15;99505.56;1086468;47;1104;-79
2023/12/25 03:49:16;;;;;;;;;;;;;;;11.52;56.57;99509.88;1086689;54;1337;-78
2023/12/25 03:50:19;;;;;;;;;;;;;;;11.67;56.15;99502.88;1086630;47;1107;-79
2023/12/25 03:51:20;;;;;;;;;;;;;;;11.58;56.35;99508.34;1086580;47;1086;-78
2023/12/25 03:52:24;;;;;;;;;;;;;;;11.34;56.87;99505.47;1087056;47;1151;-78
2023/12/25 03:53:24;;;;;;;;;;;;;;;11.33;57.06;99506.50;1086896;47;1043;-78
2023/12/25 03:54:27;;;;;;;;;;;;;;;11.40;56.68;99512.00;1086553;47;1019;-78
2023/12/25 03:55:29;;;;;;;;;;;;;;;11.44;56.53;99512.50;1086850;47;1075;-78
2023/12/25 03:56:32;;;;;;;;;;;;;;;11.77;56.21;99504.56;1086619;54;1162;-79
2023/12/25 03:57:33;;;;;;;;;;;;;;;11.72;55.95;99499.69;1086350;54;1849;-78
2023/12/25 03:58:36;;;;;;;;;;;;;;;11.58;56.42;99505.69;1086730;54;1404;-79
2023/12/25 03:59:41;;;;;;;;;;;;;;;11.66;56.22;99506.53;1086762;47;1061;-79
2023/12/25 04:00:44;;;;;;;;;;;;;;;11.67;56.00;99513.56;1086777;47;1114;-79
2023/12/25 04:01:44;;;;;;;;;;;;;;;11.52;56.61;99504.53;1087245;47;1012;-79
2023/12/25 04:02:50;;;;;;;;;;;;;;;11.57;56.30;99507.53;1087173;47;1027;-79
2023/12/25 04:03:51;;;;;;;;;;;;;;;11.46;56.71;99516.72;1086907;47;1059;-80
2023/12/25 04:04:54;;;;;;;;;;;;;;;11.66;56.26;99522.59;1087001;47;1170;-79
2023/12/25 04:05:55;;;;;;;;;;;;;;;11.90;55.52;99512.94;1087925;47;1063;-80
2023/12/25 04:07:00;;;;;;;;;;;;;;;11.88;55.80;99503.38;1087483;47;1126;-80
2023/12/25 04:08:02;;;;;;;;;;;;;;;11.93;55.78;99507.22;1087847;54;1090;-80
2023/12/25 04:09:05;;;;;;;;;;;;;;;11.62;56.16;99510.53;1087595;54;1437;-81
2023/12/25 04:10:06;;;;;;;;;;;;;;;11.57;56.32;99504.03;1088062;54;1173;-81
2023/12/25 04:11:09;;;;;;;;;;;;;;;11.70;56.22;99491.84;1088042;47;1542;-80
2023/12/25 04:12:10;;;;;;;;;;;;;;;11.58;56.35;99501.19;1088081;54;1119;-80
2023/12/25 04:13:13;;;;;;;;;;;;;;;11.55;56.68;99497.00;1088216;54;1151;-80
2023/12/25 04:14:14;;;;;;;;;;;;;;;11.63;56.23;99503.38;1088037;47;1106;-80
2023/12/25 04:15:18;;;;;;;;;;;;;;;11.81;56.14;99500.53;1088025;54;1093;-80
2023/12/25 04:16:22;;;;;;;;;;;;;;;11.57;56.17;99501.34;1087895;54;1024;-80
2023/12/25 04:17:23;;;;;;;;;;;;;;;11.44;56.82;99508.00;1087996;54;1049;-79
2023/12/25 04:18:26;;;;;;;;;;;;;;;11.45;56.58;99495.44;1087872;47;1872;-80
2023/12/25 04:19:27;;;;;;;;;;;;;;;11.49;56.88;99508.34;1088042;47;1297;-81
2023/12/25 04:20:30;;;;;;;;;;;;;;;11.50;56.79;99498.50;1088114;54;1030;-80
2023/12/25 04:21:31;;;;;;;;;;;;;;;11.68;56.29;99493.84;1087724;47;1162;-81
2023/12/25 04:22:34;;;;;;;;;;;;;;;11.78;55.90;99496.34;1087811;54;1071;-80
2023/12/25 04:23:35;;;;;;;;;;;;;;;11.55;56.42;99494.31;1087464;47;1158;-79
2023/12/25 04:24:38;;;;;;;;;;;;;;;11.45;56.83;99488.28;1088098;54;1072;-80
2023/12/25 04:25:39;;;;;;;;;;;;;;;11.58;56.45;99503.84;1088167;54;953;-81
2023/12/25 04:26:45;;;;;;;;;;;;;;;11.55;56.49;99507.72;1087972;48;1091;-80
2023/12/25 04:27:46;;;;;;;;;;;;;;;11.71;56.40;99504.19;1088168;47;1079;-80
2023/12/25 04:28:47;;;;;;;;;;;;;;;11.70;56.20;99501.69;1088171;54;1306;-81
2023/12/25 04:29:50;;;;;;;;;;;;;;;11.79;56.03;99499.88;1088027;47;966;-80
2023/12/25 04:30:53;;;;;;;;;;;;;;;11.56;56.21;99505.84;1088208;54;1167;-81
2023/12/25 04:31:58;;;;;;;;;;;;;;;11.79;56.04;99499.88;1088079;54;972;-81
2023/12/25 04:32:59;;;;;;;;;;;;;;;11.67;56.03;99493.97;1088070;47;1118;-81
2023/12/25 04:34:02;;;;;;;;;;;;;;;11.60;56.13;99501.84;1087931;54;1209;-79
2023/12/25 04:35:03;;;;;;;;;;;;;;;11.43;56.61;99503.66;1087599;54;1095;-80
2023/12/25 04:36:08;;;;;;;;;;;;;;;11.43;56.38;99513.53;1087470;47;973;-78
2023/12/25 04:37:09;;;;;;;;;;;;;;;11.59;56.29;99515.38;1086838;47;1131;-81
2023/12/25 04:38:13;;;;;;;;;;;;;;;11.59;56.37;99515.38;1087399;54;1856;-80
2023/12/25 04:39:13;;;;;;;;;;;;;;;11.76;55.63;99518.94;1087204;54;1289;-80
2023/12/25 04:40:17;;;;;;;;;;;;;;;11.73;55.71;99508.56;1087480;54;1081;-80
2023/12/25 04:41:20;;;;;;;;;;;;;;;11.61;56.27;99519.59;1087402;47;1333;-79
2023/12/25 04:42:21;;;;;;;;;;;;;;;11.80;55.94;99515.75;1087138;54;1056;-79
2023/12/25 04:43:25;;;;;;;;;;;;;;;11.77;55.96;99513.41;1087286;54;1085;-80
2023/12/25 04:44:25;;;;;;;;;;;;;;;11.60;56.41;99523.28;1087268;54;1011;-79
2023/12/25 04:45:29;;;;;;;;;;;;;;;11.58;56.73;99524.41;1087185;47;1143;-80
2023/12/25 04:46:34;;;;;;;;;;;;;;;11.49;57.00;99523.59;1087129;47;1026;-79
2023/12/25 04:47:37;;;;;;;;;;;;;;;11.33;57.54;99525.22;1087214;54;965;-79
2023/12/25 04:48:38;;;;;;;;;;;;;;;11.48;57.54;99525.41;1086691;47;1451;-80
2023/12/25 04:49:41;;;;;;;;;;;;;;;11.64;57.12;99532.63;1086539;47;1128;-79
2023/12/25 04:50:43;;;;;;;;;;;;;;;11.59;57.84;99536.81;1086397;54;1174;-79
2023/12/25 04:51:46;;;;;;;;;;;;;;;11.45;57.99;99532.91;1086163;47;1067;-80
2023/12/25 04:52:47;;;;;;;;;;;;;;;11.22;58.81;99538.88;1086576;47;1011;-80
2023/12/25 04:53:51;;;;;;;;;;;;;;;11.27;59.09;99541.91;1086029;47;1098;-79
2023/12/25 04:54:51;;;;;;;;;;;;;;;11.31;59.45;99535.25;1086751;54;1402;-78
2023/12/25 04:55:52;;;;;;;;;;;;;;;11.43;59.57;99535.78;1087567;54;999;-80
2023/12/25 04:56:57;;;;;;;;;;;;;;;11.50;59.77;99530.63;1087873;54;1140;-80
2023/12/25 04:57:57;;;;;;;;;;;;;;;11.27;61.09;99533.88;1087788;47;1852;-79
2023/12/25 04:59:01;;;;;;;;;;;;;;;10.91;62.33;99532.22;1087833;47;1393;-79
2023/12/25 05:00:03;;;;;;;;;;;;;;;10.83;62.64;99534.03;1087528;54;1093;-79
2023/12/25 05:01:06;;;;;;;;;;;;;;;10.90;62.83;99527.03;1087177;54;1281;-79
2023/12/25 05:02:10;;;;;;;;;;;;;;;10.90;62.67;99535.06;1087182;54;1110;-79
2023/12/25 05:03:13;;;;;;;;;;;;;;;10.85;62.92;99529.38;1087148;54;1119;-79
2023/12/25 05:04:14;;;;;;;;;;;;;;;10.91;62.70;99528.72;1086986;47;1063;-80
2023/12/25 05:05:18;;;;;;;;;;;;;;;10.97;62.76;99528.06;1087542;47;1091;-79
2023/12/25 05:06:19;;;;;;;;;;;;;;;10.78;63.26;99523.81;1087790;54;1189;-78
2023/12/25 05:07:23;;;;;;;;;;;;;;;10.70;62.87;99526.44;1087554;47;1202;-78
2023/12/25 05:08:24;;;;;;;;;;;;;;;10.80;62.78;99527.16;1087868;54;917;-79
2023/12/25 05:09:27;;;;;;;;;;;;;;;10.86;62.49;99533.72;1087774;54;1267;-79
2023/12/25 05:10:28;;;;;;;;;;;;;;;10.84;62.36;99517.00;1087832;47;959;-78
2023/12/25 05:11:31;;;;;;;;;;;;;;;10.74;61.87;99522.44;1087858;47;942;-79
2023/12/25 05:12:32;;;;;;;;;;;;;;;10.81;61.34;99522.66;1087858;47;947;-79
2023/12/25 05:13:35;;;;;;;;;;;;;;;10.85;60.77;99524.00;1087838;54;1042;-78
2023/12/25 05:14:36;;;;;;;;;;;;;;;10.80;60.85;99519.16;1087840;47;1094;-79
2023/12/25 05:15:40;;;;;;;;;;;;;;;10.89;60.92;99522.69;1087717;47;1360;-79
2023/12/25 05:16:41;;;;;;;;;;;;;;;10.93;60.58;99526.72;1087816;54;1070;-79
2023/12/25 05:17:48;;;;;;;;;;;;;;;11.02;60.58;99524.91;1087818;47;981;-78
2023/12/25 05:18:49;;;;;;;;;;;;;;;11.05;60.10;99535.28;1087806;47;1850;-78
2023/12/25 05:19:52;;;;;;;;;;;;;;;10.96;60.36;99526.38;1087968;47;1031;-79
2023/12/25 05:20:53;;;;;;;;;;;;;;;10.95;60.41;99514.03;1088142;47;1068;-78
2023/12/25 05:21:56;;;;;;;;;;;;;;;10.99;60.66;99519.91;1088427;47;877;-78
2023/12/25 05:22:57;;;;;;;;;;;;;;;11.02;60.18;99504.38;1088605;54;990;-79
2023/12/25 05:24:00;;;;;;;;;;;;;;;10.97;60.14;99498.66;1088616;54;1002;-78
2023/12/25 05:25:01;;;;;;;;;;;;;;;11.02;60.01;99503.50;1088503;54;1139;-79
2023/12/25 05:26:05;;;;;;;;;;;;;;;10.88;59.89;99494.25;1088482;54;967;-78
2023/12/25 05:27:08;;;;;;;;;;;;;;;10.96;59.86;99505.00;1088582;54;954;-80
2023/12/25 05:28:11;;;;;;;;;;;;;;;10.88;59.94;99496.94;1088562;46;948;-78
2023/12/25 05:29:13;;;;;;;;;;;;;;;10.95;60.41;99502.50;1088233;54;1405;-79